TimeCDT,TemperatureF,Dew PointF,Humidity,Sea Level PressureIn,VisibilityMPH,Wind Direction,Wind SpeedMPH,Gust SpeedMPH,PrecipitationIn,Events,Conditions,WindDirDegrees,DateUTC
12:53 AM,66.0,55.0,68,29.81,10.0,East,9.2,-,N/A,,Clear,100,2013-05-23 05:53:00
1:53 AM,64.9,55.0,70,29.82,10.0,East,8.1,-,N/A,,Clear,90,2013-05-23 06:53:00
2:53 AM,64.9,55.9,73,29.81,10.0,East,9.2,-,N/A,,Clear,90,2013-05-23 07:53:00
3:53 AM,64.0,57.0,78,29.81,10.0,East,9.2,-,N/A,,Clear,100,2013-05-23 08:53:00
4:53 AM,64.0,57.9,80,29.82,10.0,East,10.4,-,N/A,,Clear,80,2013-05-23 09:53:00
5:53 AM,63.0,57.9,84,29.82,10.0,East,9.2,-,N/A,,Clear,80,2013-05-23 10:53:00
6:53 AM,63.0,59.0,87,29.84,10.0,East,11.5,-,N/A,,Clear,80,2013-05-23 11:53:00
7:53 AM,66.9,61.0,81,29.85,10.0,ESE,10.4,-,N/A,,Clear,110,2013-05-23 12:53:00
8:53 AM,71.1,64.0,78,29.90,10.0,East,19.6,24.2,N/A,,Partly Cloudy,90,2013-05-23 13:53:00
9:14 AM,71.6,64.4,78,29.95,10.0,East,23.0,27.6,N/A,,Mostly Cloudy,90,2013-05-23 14:14:00
9:53 AM,72.0,64.9,78,29.93,9.0,East,26.5,33.4,N/A,,Overcast,100,2013-05-23 14:53:00
10:27 AM,75.2,66.2,73,29.97,9.0,East,26.5,33.4,N/A,,Overcast,100,2013-05-23 15:27:00
10:53 AM,77.0,64.0,64,29.93,10.0,ESE,31.1,36.8,N/A,,Partly Cloudy,110,2013-05-23 15:53:00
11:53 AM,82.0,64.0,54,29.94,10.0,East,24.2,35.7,N/A,,Mostly Cloudy,100,2013-05-23 16:53:00
12:53 PM,84.9,60.1,43,29.94,10.0,ESE,24.2,34.5,N/A,,Mostly Cloudy,120,2013-05-23 17:53:00
1:53 PM,88.0,55.0,32,29.91,10.0,ESE,23.0,31.1,N/A,,Scattered Clouds,120,2013-05-23 18:53:00
2:53 PM,89.1,60.1,38,29.88,10.0,ESE,23.0,28.8,N/A,,Clear,120,2013-05-23 19:53:00
3:53 PM,86.0,63.0,46,29.88,10.0,SE,17.3,24.2,N/A,,Partly Cloudy,130,2013-05-23 20:53:00
4:53 PM,84.0,64.0,51,29.90,10.0,SE,17.3,-,N/A,,Mostly Cloudy,130,2013-05-23 21:53:00
5:53 PM,82.0,64.9,56,29.89,8.0,SE,16.1,-,N/A,,Scattered Clouds,130,2013-05-23 22:53:00
6:53 PM,81.0,66.0,60,29.81,9.0,ESE,27.6,39.1,N/A,,Scattered Clouds,120,2013-05-23 23:53:00
7:53 PM,80.1,66.9,64,29.86,8.0,East,25.3,32.2,N/A,,Scattered Clouds,80,2013-05-24 00:53:00
8:53 PM,79.0,66.9,66,29.88,7.0,East,21.9,29.9,N/A,,Partly Cloudy,90,2013-05-24 01:53:00
9:53 PM,77.0,66.9,71,29.91,9.0,East,15.0,-,N/A,,Clear,100,2013-05-24 02:53:00
10:53 PM,75.9,66.0,71,29.96,10.0,East,17.3,26.5,N/A,,Clear,90,2013-05-24 03:53:00
11:53 PM,75.0,66.0,73,29.98,10.0,East,12.7,-,N/A,,Clear,100,2013-05-24 04:53:00